createdAt,value
2019-03-29T00:02:30.408Z,11.40
2019-03-29T00:05:01.156Z,11.37
2019-03-29T00:07:39.367Z,11.37
2019-03-29T00:10:04.778Z,11.28
2019-03-29T00:12:35.547Z,11.33
2019-03-29T00:15:06.338Z,11.26
2019-03-29T00:17:37.061Z,11.08
2019-03-29T00:20:08.364Z,11.23
2019-03-29T00:22:39.123Z,11.21
2019-03-29T00:25:09.864Z,11.18
2019-03-29T00:27:40.621Z,11.13
2019-03-29T00:30:12.169Z,11.13
2019-03-29T00:32:42.936Z,11.12
2019-03-29T00:35:13.687Z,11.08
2019-03-29T00:37:53.455Z,11.03
2019-03-29T00:40:17.098Z,11.02
2019-03-29T00:42:47.871Z,11.00
2019-03-29T00:45:19.130Z,10.94
2019-03-29T00:47:50.132Z,10.84
2019-03-29T00:50:20.878Z,10.82
2019-03-29T00:52:51.658Z,10.78
2019-03-29T00:55:22.419Z,10.78
2019-03-29T00:57:53.178Z,10.78
2019-03-29T01:00:23.934Z,10.79
2019-03-29T01:02:54.713Z,10.78
2019-03-29T01:05:25.472Z,10.82
2019-03-29T01:08:07.009Z,10.74
2019-03-29T01:10:28.889Z,10.76
2019-03-29T01:12:59.637Z,10.78
2019-03-29T01:15:30.394Z,10.75
2019-03-29T01:18:01.145Z,10.77
2019-03-29T01:20:32.210Z,10.74
2019-03-29T01:23:03.064Z,10.73
2019-03-29T01:25:35.090Z,10.37
2019-03-29T01:28:05.990Z,10.68
2019-03-29T01:30:36.750Z,10.70
2019-03-29T01:33:07.555Z,10.28
2019-03-29T01:35:38.350Z,10.73
2019-03-29T01:38:21.060Z,10.63
2019-03-29T01:40:41.849Z,10.61
2019-03-29T01:43:12.598Z,10.63
2019-03-29T01:45:43.360Z,10.59
2019-03-29T01:48:14.111Z,10.58
2019-03-29T01:50:44.895Z,10.51
2019-03-29T01:53:15.645Z,10.56
2019-03-29T01:55:46.414Z,10.52
2019-03-29T01:58:17.162Z,10.75
2019-03-29T02:00:47.944Z,10.74
2019-03-29T02:03:18.696Z,10.74
2019-03-29T02:05:49.458Z,10.75
2019-03-29T02:08:20.213Z,10.73
2019-03-29T02:10:50.982Z,10.70
2019-03-29T02:13:21.728Z,10.69
2019-03-29T02:15:52.489Z,10.77
2019-03-29T02:18:23.238Z,10.75
2019-03-29T02:20:54.213Z,10.60
2019-03-29T02:23:24.975Z,10.60
2019-03-29T02:25:55.732Z,10.69
2019-03-29T02:28:26.483Z,10.69
2019-03-29T02:30:59.691Z,10.65
2019-03-29T02:33:30.424Z,10.65
2019-03-29T02:36:01.184Z,10.65
2019-03-29T02:38:31.931Z,10.64
2019-03-29T02:41:02.822Z,10.58
2019-03-29T02:43:33.573Z,10.63
2019-03-29T02:46:04.353Z,10.60
2019-03-29T02:48:35.096Z,10.67
2019-03-29T02:51:05.868Z,10.63
2019-03-29T02:53:36.621Z,10.58
2019-03-29T02:56:07.398Z,10.52
2019-03-29T02:58:38.154Z,10.54
2019-03-29T03:01:08.919Z,10.49
2019-03-29T03:03:39.664Z,10.47
2019-03-29T03:06:10.438Z,10.44
2019-03-29T03:08:41.180Z,10.46
2019-03-29T03:11:11.942Z,10.51
2019-03-29T03:13:42.693Z,10.41
2019-03-29T03:16:13.460Z,10.40
2019-03-29T03:18:44.211Z,10.41
2019-03-29T03:21:14.976Z,10.40
2019-03-29T03:23:45.719Z,10.39
2019-03-29T03:26:16.486Z,10.40
2019-03-29T03:28:47.240Z,10.39
2019-03-29T03:31:18.001Z,10.36
2019-03-29T03:33:48.746Z,10.39
2019-03-29T03:36:19.536Z,10.42
2019-03-29T03:38:50.285Z,10.40
2019-03-29T03:41:21.305Z,10.44
2019-03-29T03:43:52.064Z,10.44
2019-03-29T03:46:23.050Z,10.40
2019-03-29T03:48:53.915Z,10.37
2019-03-29T03:51:24.978Z,10.38
2019-03-29T03:53:55.843Z,10.41
2019-03-29T03:56:27.205Z,10.38
2019-03-29T03:58:58.157Z,10.34
2019-03-29T04:01:28.927Z,10.36
2019-03-29T04:03:59.681Z,10.36
2019-03-29T04:06:30.429Z,10.30
2019-03-29T04:09:01.182Z,10.29
2019-03-29T04:11:31.949Z,10.23
2019-03-29T04:14:02.708Z,10.26
2019-03-29T04:16:33.456Z,10.25
2019-03-29T04:19:04.212Z,10.26
2019-03-29T04:21:34.977Z,10.24
2019-03-29T04:24:05.831Z,10.22
2019-03-29T04:26:36.591Z,10.17
2019-03-29T04:29:07.339Z,10.21
2019-03-29T04:31:38.105Z,10.21
2019-03-29T04:34:08.866Z,10.17
2019-03-29T04:36:39.658Z,10.08
2019-03-29T04:39:10.402Z,10.06
2019-03-29T04:41:41.170Z,10.01
2019-03-29T04:44:11.918Z,10.01
2019-03-29T04:46:42.682Z,9.99
2019-03-29T04:49:13.529Z,9.99
2019-03-29T04:51:44.289Z,9.88
2019-03-29T04:54:15.036Z,9.88
2019-03-29T04:56:45.816Z,9.84
2019-03-29T04:59:16.571Z,9.86
2019-03-29T05:01:47.354Z,9.88
2019-03-29T05:04:18.190Z,9.80
2019-03-29T05:06:48.938Z,9.80
2019-03-29T05:09:19.746Z,9.95
2019-03-29T05:11:50.518Z,9.92
2019-03-29T05:14:21.383Z,9.92
2019-03-29T05:16:52.170Z,9.80
2019-03-29T05:19:22.958Z,9.80
2019-03-29T05:21:53.711Z,9.31
2019-03-29T05:24:24.469Z,9.73
2019-03-29T05:26:55.230Z,9.72
2019-03-29T05:29:25.990Z,9.76
2019-03-29T05:31:57.050Z,9.73
2019-03-29T05:34:27.827Z,9.79
2019-03-29T05:36:58.681Z,9.77
2019-03-29T05:39:29.443Z,9.36
2019-03-29T05:42:00.189Z,9.78
2019-03-29T05:44:30.950Z,9.79
2019-03-29T05:47:01.699Z,9.76
2019-03-29T05:49:32.540Z,9.75
2019-03-29T05:52:03.302Z,9.75
2019-03-29T05:54:34.061Z,9.79
2019-03-29T05:57:04.822Z,9.79
2019-03-29T05:59:35.582Z,9.79
2019-03-29T06:02:06.330Z,9.77
2019-03-29T06:04:37.151Z,9.74
2019-03-29T06:07:07.907Z,9.75
2019-03-29T06:09:38.718Z,9.84
2019-03-29T06:12:09.465Z,9.84
2019-03-29T06:14:40.225Z,9.75
2019-03-29T06:17:10.964Z,9.76
2019-03-29T06:19:41.735Z,9.75
2019-03-29T06:22:12.477Z,9.70
2019-03-29T06:24:43.238Z,9.80
2019-03-29T06:27:13.986Z,9.83
2019-03-29T06:29:44.747Z,9.86
2019-03-29T06:32:15.497Z,9.95
2019-03-29T06:34:46.277Z,9.93
2019-03-29T06:37:18.026Z,9.87
2019-03-29T06:39:49.301Z,9.85
2019-03-29T06:42:20.088Z,9.90
2019-03-29T06:44:50.852Z,9.85
2019-03-29T06:47:21.675Z,9.91
2019-03-29T06:49:52.446Z,9.94
2019-03-29T06:52:23.233Z,9.91
2019-03-29T06:54:54.081Z,9.95
2019-03-29T06:57:24.926Z,10.05
2019-03-29T06:59:55.775Z,10.16
2019-03-29T07:02:26.585Z,10.16
2019-03-29T07:04:57.425Z,10.05
2019-03-29T07:07:28.256Z,10.11
2019-03-29T07:09:59.099Z,10.19
2019-03-29T07:12:29.867Z,10.37
2019-03-29T07:15:00.629Z,10.44
2019-03-29T07:17:31.396Z,10.48
2019-03-29T07:20:04.547Z,10.50
2019-03-29T07:22:35.330Z,10.53
2019-03-29T07:25:06.571Z,10.58
2019-03-29T07:27:45.003Z,10.52
2019-03-29T07:30:10.499Z,10.61
2019-03-29T07:32:41.268Z,10.61
2019-03-29T07:35:13.117Z,10.75
2019-03-29T07:37:43.920Z,10.69
2019-03-29T07:40:14.869Z,10.74
2019-03-29T07:42:45.701Z,10.86
2019-03-29T07:45:16.546Z,10.86
2019-03-29T07:47:47.369Z,11.01
2019-03-29T07:50:19.232Z,10.85
2019-03-29T07:52:50.273Z,10.87
2019-03-29T07:55:21.054Z,10.88
2019-03-29T07:57:51.806Z,10.52
2019-03-29T08:00:22.583Z,11.04
2019-03-29T08:02:53.337Z,11.10
2019-03-29T08:05:24.157Z,11.11
2019-03-29T08:07:54.985Z,11.07
2019-03-29T08:10:30.204Z,11.19
2019-03-29T08:12:58.406Z,11.19
2019-03-29T08:15:29.256Z,11.17
2019-03-29T08:18:01.837Z,11.30
2019-03-29T08:20:43.820Z,11.32
2019-03-29T08:23:05.364Z,11.25
2019-03-29T08:25:36.114Z,11.33
2019-03-29T08:28:06.910Z,11.33
2019-03-29T08:30:37.674Z,11.38
2019-03-29T08:33:08.413Z,11.49
2019-03-29T08:35:39.168Z,11.63
2019-03-29T08:38:09.917Z,11.70
2019-03-29T08:40:40.685Z,11.68
2019-03-29T08:43:11.443Z,11.70
2019-03-29T08:45:42.221Z,11.67
2019-03-29T08:48:12.952Z,11.78
2019-03-29T08:50:43.716Z,11.79
2019-03-29T08:53:14.473Z,11.88
2019-03-29T08:55:46.385Z,11.98
2019-03-29T08:58:17.370Z,12.07
2019-03-29T09:00:48.133Z,12.25
2019-03-29T09:03:18.878Z,12.24
2019-03-29T09:05:49.838Z,12.37
2019-03-29T09:08:20.586Z,12.47
2019-03-29T09:10:51.349Z,12.51
2019-03-29T09:13:22.099Z,12.68
2019-03-29T09:15:53.119Z,12.67
2019-03-29T09:18:25.923Z,12.76
2019-03-29T09:20:56.520Z,12.89
2019-03-29T09:23:29.921Z,13.00
2019-03-29T09:25:59.936Z,13.04
2019-03-29T09:28:32.875Z,13.20
2019-03-29T09:31:03.754Z,13.38
2019-03-29T09:33:34.567Z,12.97
2019-03-29T09:36:05.519Z,13.59
2019-03-29T09:38:36.303Z,13.25
2019-03-29T09:41:07.074Z,13.72
2019-03-29T09:43:37.831Z,13.89
2019-03-29T09:46:08.593Z,14.20
2019-03-29T09:48:39.361Z,14.44
2019-03-29T09:51:10.143Z,14.70
2019-03-29T09:53:41.560Z,14.66
2019-03-29T09:56:12.461Z,14.45
2019-03-29T09:58:45.105Z,14.95
2019-03-29T10:01:15.968Z,15.13
2019-03-29T10:03:46.692Z,15.36
2019-03-29T10:06:17.513Z,15.54
2019-03-29T10:08:48.373Z,15.57
2019-03-29T10:11:21.888Z,15.96
2019-03-29T10:13:51.866Z,15.96
2019-03-29T10:16:25.824Z,16.04
2019-03-29T10:18:55.380Z,16.20
2019-03-29T10:21:26.129Z,16.18
2019-03-29T10:23:56.883Z,16.40
2019-03-29T10:26:27.630Z,16.66
2019-03-29T10:28:58.518Z,16.62
2019-03-29T10:31:32.482Z,16.83
2019-03-29T10:34:01.974Z,16.77
2019-03-29T10:36:32.749Z,16.77
2019-03-29T10:39:07.396Z,17.02
2019-03-29T10:41:38.277Z,17.11
2019-03-29T10:44:09.029Z,17.11
2019-03-29T10:46:39.781Z,17.29
2019-03-29T10:49:10.542Z,17.26
2019-03-29T10:51:41.313Z,17.33
2019-03-29T10:54:12.297Z,17.61
2019-03-29T10:56:43.054Z,17.50
2019-03-29T10:59:26.687Z,17.56
2019-03-29T11:01:46.503Z,17.65
2019-03-29T11:04:17.250Z,17.82
2019-03-29T11:06:48.022Z,17.90
2019-03-29T11:09:18.790Z,17.98
2019-03-29T11:11:49.565Z,17.95
2019-03-29T11:14:20.326Z,18.01
2019-03-29T11:16:51.138Z,18.01
2019-03-29T11:19:21.841Z,18.09
2019-03-29T11:21:52.617Z,17.98
2019-03-29T11:24:23.418Z,18.05
2019-03-29T11:26:54.164Z,18.05
2019-03-29T11:29:24.983Z,17.99
2019-03-29T11:31:55.741Z,18.07
2019-03-29T11:34:26.502Z,17.98
2019-03-29T11:36:57.570Z,17.86
2019-03-29T11:39:28.343Z,17.92
2019-03-29T11:41:59.086Z,17.82
2019-03-29T11:44:30.366Z,17.95
2019-03-29T11:47:01.212Z,18.04
2019-03-29T11:49:31.977Z,17.98
2019-03-29T11:52:02.730Z,17.83
2019-03-29T11:54:33.834Z,17.90
2019-03-29T11:57:04.599Z,18.03
2019-03-29T11:59:35.353Z,17.94
2019-03-29T12:02:06.108Z,17.91
2019-03-29T12:04:36.965Z,18.02
2019-03-29T12:07:09.623Z,18.05
2019-03-29T12:09:40.530Z,18.08
2019-03-29T12:12:11.285Z,17.99
2019-03-29T12:14:42.053Z,18.14
2019-03-29T12:17:12.882Z,18.22
2019-03-29T12:19:43.641Z,18.15
2019-03-29T12:22:15.282Z,18.08
2019-03-29T12:24:46.053Z,17.97
2019-03-29T12:27:16.850Z,17.96
2019-03-29T12:29:47.610Z,17.98
2019-03-29T12:32:18.362Z,18.03
2019-03-29T12:34:49.129Z,18.09
2019-03-29T12:37:19.882Z,18.15
2019-03-29T12:39:50.641Z,18.04
2019-03-29T12:42:21.395Z,17.85
2019-03-29T12:44:52.158Z,17.88
2019-03-29T12:47:22.910Z,17.83
2019-03-29T12:49:53.686Z,17.81
2019-03-29T12:52:24.444Z,17.89
2019-03-29T12:54:55.231Z,17.89
2019-03-29T12:57:26.020Z,17.95
2019-03-29T12:59:56.780Z,17.94
2019-03-29T13:02:27.854Z,17.89
2019-03-29T13:04:58.620Z,17.69
2019-03-29T13:07:29.367Z,17.87
2019-03-29T13:10:00.367Z,17.90
2019-03-29T13:12:31.210Z,17.81
2019-03-29T13:15:04.275Z,17.82
2019-03-29T13:17:35.331Z,17.85
2019-03-29T13:20:06.198Z,17.66
2019-03-29T13:22:37.154Z,17.51
2019-03-29T13:25:08.210Z,17.46
2019-03-29T13:27:38.981Z,17.44
2019-03-29T13:30:10.355Z,17.53
2019-03-29T13:32:41.117Z,17.50
2019-03-29T13:35:12.150Z,17.52
2019-03-29T13:37:42.897Z,17.57
2019-03-29T13:40:13.860Z,17.64
2019-03-29T13:42:44.606Z,17.68
2019-03-29T13:45:15.374Z,17.64
2019-03-29T13:47:46.129Z,17.65
2019-03-29T13:50:16.897Z,17.67
2019-03-29T13:52:47.644Z,17.56
2019-03-29T13:55:18.658Z,17.65
2019-03-29T13:57:49.413Z,17.69
2019-03-29T14:00:20.174Z,17.56
2019-03-29T14:02:50.951Z,17.51
2019-03-29T14:05:21.738Z,17.29
2019-03-29T14:07:52.487Z,17.28
2019-03-29T14:10:23.511Z,17.31
2019-03-29T14:12:54.271Z,17.33
2019-03-29T14:15:25.035Z,17.38
2019-03-29T14:17:55.788Z,17.43
2019-03-29T14:20:31.005Z,17.44
2019-03-29T14:23:02.625Z,17.51
2019-03-29T14:25:33.804Z,17.54
2019-03-29T14:28:04.561Z,17.47
2019-03-29T14:30:35.331Z,17.47
2019-03-29T14:33:06.092Z,17.44
2019-03-29T14:35:36.858Z,17.48
2019-03-29T14:38:07.630Z,17.47
2019-03-29T14:40:38.397Z,17.47
2019-03-29T14:43:09.160Z,17.46
2019-03-29T14:45:40.024Z,17.63
2019-03-29T14:48:10.852Z,17.54
2019-03-29T14:50:41.721Z,17.36
2019-03-29T14:53:12.526Z,16.96
2019-03-29T14:55:43.377Z,17.20
2019-03-29T14:58:14.205Z,17.31
2019-03-29T15:00:48.386Z,17.31
2019-03-29T15:03:17.723Z,17.31
2019-03-29T15:05:48.467Z,17.31
2019-03-29T15:08:19.331Z,17.23
2019-03-29T15:10:50.077Z,17.20
2019-03-29T15:13:20.869Z,17.11
2019-03-29T15:15:53.603Z,17.11
2019-03-29T15:18:24.409Z,17.08
2019-03-29T15:20:55.209Z,17.16
2019-03-29T15:23:25.971Z,17.26
2019-03-29T15:25:56.774Z,17.35
2019-03-29T15:28:27.533Z,17.37
2019-03-29T15:30:58.284Z,17.34
2019-03-29T15:33:29.051Z,17.40
2019-03-29T15:35:59.824Z,17.32
2019-03-29T15:38:30.586Z,17.29
2019-03-29T15:41:01.487Z,17.29
2019-03-29T15:43:32.250Z,17.35
2019-03-29T15:46:02.997Z,17.25
2019-03-29T15:48:33.782Z,17.15
2019-03-29T15:51:04.534Z,17.23
2019-03-29T15:53:35.384Z,17.31
2019-03-29T15:56:06.141Z,17.30
2019-03-29T15:58:36.902Z,17.23
2019-03-29T16:01:07.855Z,17.25
2019-03-29T16:03:38.620Z,17.23
2019-03-29T16:06:09.374Z,17.20
2019-03-29T16:08:40.373Z,17.12
2019-03-29T16:11:17.038Z,17.09
2019-03-29T16:13:43.785Z,17.05
2019-03-29T16:16:14.558Z,16.72
2019-03-29T16:18:45.319Z,17.18
2019-03-29T16:21:16.158Z,17.17
2019-03-29T16:23:46.944Z,17.10
2019-03-29T16:26:17.689Z,17.05
2019-03-29T16:28:48.444Z,17.05
2019-03-29T16:31:19.194Z,17.09
2019-03-29T16:33:49.959Z,17.12
2019-03-29T16:36:20.726Z,17.09
2019-03-29T16:38:51.495Z,17.05
2019-03-29T16:41:22.241Z,16.99
2019-03-29T16:43:53.022Z,17.00
2019-03-29T16:46:23.770Z,16.95
2019-03-29T16:48:54.541Z,16.96
2019-03-29T16:51:25.301Z,16.86
2019-03-29T16:53:56.054Z,16.82
2019-03-29T16:56:26.829Z,16.75
2019-03-29T16:58:57.589Z,16.71
2019-03-29T17:01:28.410Z,16.57
2019-03-29T17:03:59.206Z,16.51
2019-03-29T17:06:29.959Z,16.52
2019-03-29T17:09:00.718Z,16.57
2019-03-29T17:11:31.474Z,16.54
2019-03-29T17:14:02.351Z,16.49
2019-03-29T17:16:33.103Z,16.39
2019-03-29T17:19:03.864Z,16.25
2019-03-29T17:21:34.643Z,16.15
2019-03-29T17:24:05.401Z,16.03
2019-03-29T17:26:36.149Z,16.01
2019-03-29T17:29:06.910Z,15.95
2019-03-29T17:31:37.665Z,15.96
2019-03-29T17:34:08.426Z,15.92
2019-03-29T17:36:39.185Z,15.77
2019-03-29T17:39:09.941Z,15.73
2019-03-29T17:41:40.695Z,15.61
2019-03-29T17:44:11.478Z,15.53
2019-03-29T17:46:42.217Z,15.47
2019-03-29T17:49:12.983Z,15.37
2019-03-29T17:51:43.730Z,15.19
2019-03-29T17:54:14.490Z,15.07
2019-03-29T17:56:45.264Z,14.87
2019-03-29T17:59:16.070Z,14.73
2019-03-29T18:01:47.207Z,14.64
2019-03-29T18:04:18.088Z,14.43
2019-03-29T18:06:48.899Z,14.30
2019-03-29T18:09:19.653Z,14.23
2019-03-29T18:11:50.657Z,14.18
2019-03-29T18:14:21.473Z,14.00
2019-03-29T18:16:52.227Z,13.87
2019-03-29T18:19:23.066Z,13.68
2019-03-29T18:21:53.833Z,13.58
2019-03-29T18:24:24.589Z,13.53
2019-03-29T18:26:55.353Z,13.45
2019-03-29T18:29:26.114Z,13.46
2019-03-29T18:31:57.339Z,13.25
2019-03-29T18:34:28.405Z,13.21
2019-03-29T18:36:59.358Z,13.17
2019-03-29T18:39:30.122Z,13.09
2019-03-29T18:42:00.899Z,12.91
2019-03-29T18:44:31.751Z,12.92
2019-03-29T18:47:02.514Z,12.82
2019-03-29T18:49:33.274Z,12.70
2019-03-29T18:52:04.059Z,12.69
2019-03-29T18:54:34.816Z,12.66
2019-03-29T18:57:05.631Z,12.65
2019-03-29T18:59:36.473Z,12.55
2019-03-29T19:02:07.274Z,12.49
2019-03-29T19:04:38.121Z,12.40
2019-03-29T19:07:08.949Z,12.43
2019-03-29T19:09:39.794Z,12.46
2019-03-29T19:12:10.634Z,12.44
2019-03-29T19:14:41.920Z,12.38
2019-03-29T19:17:12.828Z,12.34
2019-03-29T19:19:43.589Z,12.28
2019-03-29T19:22:14.405Z,12.15
2019-03-29T19:24:45.229Z,12.08
2019-03-29T19:27:17.075Z,12.00
2019-03-29T19:29:47.835Z,11.98
2019-03-29T19:32:18.873Z,11.81
2019-03-29T19:34:49.697Z,11.73
2019-03-29T19:37:20.575Z,11.66
2019-03-29T19:39:51.329Z,11.70
2019-03-29T19:42:22.073Z,11.60
2019-03-29T19:44:52.859Z,11.56
2019-03-29T19:47:23.605Z,11.53
2019-03-29T19:49:55.481Z,11.55
2019-03-29T19:52:26.363Z,11.39
2019-03-29T19:54:57.194Z,11.45
2019-03-29T19:57:28.264Z,11.50
2019-03-29T19:59:59.205Z,11.28
2019-03-29T20:02:30.133Z,11.18
2019-03-29T20:05:00.969Z,11.18
2019-03-29T20:07:31.789Z,11.28
2019-03-29T20:10:05.859Z,11.25
2019-03-29T20:18:16.251Z,11.16
2019-03-29T20:20:47.208Z,11.05
2019-03-29T20:23:17.976Z,10.95
2019-03-29T20:25:48.733Z,10.85
2019-03-29T20:28:19.475Z,10.92
2019-03-29T20:30:50.234Z,10.93
2019-03-29T20:33:20.986Z,10.85
2019-03-29T20:35:51.745Z,10.91
2019-03-29T20:38:22.497Z,10.87
2019-03-29T20:40:53.258Z,10.78
2019-03-29T20:43:24.011Z,10.75
2019-03-29T20:45:54.774Z,10.70
2019-03-29T20:48:25.534Z,10.69
2019-03-29T20:50:56.293Z,10.67
2019-03-29T20:53:27.056Z,10.65
2019-03-29T20:55:58.446Z,10.54
2019-03-29T20:58:29.290Z,10.63
2019-03-29T21:01:00.058Z,10.68
2019-03-29T21:03:30.806Z,10.54
2019-03-29T21:06:01.568Z,10.45
2019-03-29T21:08:32.317Z,10.54
2019-03-29T21:11:03.096Z,10.58
2019-03-29T21:13:33.889Z,10.47
2019-03-29T21:16:04.617Z,10.39
2019-03-29T21:18:35.371Z,10.45
2019-03-29T21:21:06.132Z,10.49
2019-03-29T21:23:36.880Z,10.34
2019-03-29T21:26:07.644Z,10.36
2019-03-29T21:28:39.446Z,10.37
2019-03-29T21:31:10.224Z,10.29
2019-03-29T21:33:41.087Z,10.42
2019-03-29T21:36:11.857Z,10.44
2019-03-29T21:38:42.612Z,10.44
2019-03-29T21:41:13.376Z,10.27
2019-03-29T21:43:44.161Z,10.15
2019-03-29T21:46:15.001Z,10.30
2019-03-29T21:48:45.746Z,10.12
2019-03-29T21:51:16.501Z,10.24
2019-03-29T21:53:47.253Z,10.16
2019-03-29T21:56:18.029Z,10.08
2019-03-29T21:58:48.876Z,9.95
2019-03-29T22:01:19.647Z,9.96
2019-03-29T22:03:50.684Z,9.87
2019-03-29T22:06:21.458Z,9.81
2019-03-29T22:08:52.218Z,9.81
2019-03-29T22:11:22.986Z,9.80
2019-03-29T22:13:54.010Z,9.84
2019-03-29T22:16:24.787Z,9.89
2019-03-29T22:18:55.537Z,9.73
2019-03-29T22:21:26.298Z,9.56
2019-03-29T22:23:57.051Z,9.49
2019-03-29T22:26:27.908Z,9.46
2019-03-29T22:28:58.668Z,9.51
2019-03-29T22:31:29.435Z,9.55
2019-03-29T22:34:00.194Z,9.58
2019-03-29T22:36:30.989Z,9.57
2019-03-29T22:39:03.772Z,9.42
2019-03-29T22:41:34.688Z,9.40
2019-03-29T22:44:05.478Z,9.34
2019-03-29T22:46:36.242Z,9.21
2019-03-29T22:49:06.994Z,9.20
2019-03-29T22:51:37.756Z,9.24
2019-03-29T22:54:08.508Z,9.37
2019-03-29T22:56:39.277Z,9.26
2019-03-29T22:59:10.027Z,9.28
2019-03-29T23:01:41.786Z,9.17
2019-03-29T23:04:12.552Z,9.05
2019-03-29T23:06:43.317Z,9.11
2019-03-29T23:09:14.083Z,8.93
2019-03-29T23:11:44.851Z,9.04
2019-03-29T23:14:15.666Z,8.97
2019-03-29T23:16:46.507Z,8.97
2019-03-29T23:19:17.229Z,8.91
2019-03-29T23:21:47.987Z,8.89
2019-03-29T23:24:18.755Z,8.81
2019-03-29T23:26:49.502Z,8.81
2019-03-29T23:29:20.276Z,8.79
2019-03-29T23:31:51.019Z,8.75
2019-03-29T23:34:21.780Z,8.75
2019-03-29T23:36:52.528Z,8.73
2019-03-29T23:39:23.289Z,8.64
2019-03-29T23:41:54.041Z,8.55
2019-03-29T23:44:24.809Z,8.55
2019-03-29T23:46:55.566Z,8.45
2019-03-29T23:49:26.325Z,8.48
2019-03-29T23:51:57.080Z,8.43
2019-03-29T23:54:27.843Z,8.44
2019-03-29T23:56:58.607Z,8.33
2019-03-29T23:59:29.366Z,8.26
